createdAt,value
2023-03-29T03:59:26.676Z,-1.37
2023-03-29T04:02:31.706Z,-1.44
2023-03-29T04:05:39.846Z,-1.52
2023-03-29T04:08:43.081Z,-1.49
2023-03-29T04:11:46.921Z,-1.44
2023-03-29T04:14:50.020Z,-1.49
2023-03-29T04:17:52.982Z,-1.49
2023-03-29T04:20:56.230Z,-1.53
2023-03-29T04:23:59.985Z,-1.51
2023-03-29T04:27:03.151Z,-1.46
2023-03-29T04:30:07.337Z,-1.49
2023-03-29T04:33:21.273Z,-1.55
2023-03-29T04:36:29.662Z,-1.58
2023-03-29T04:39:34.355Z,-1.57
2023-03-29T04:42:38.990Z,-1.55
2023-03-29T04:45:41.841Z,-1.56
2023-03-29T04:48:45.156Z,-1.50
2023-03-29T04:51:48.523Z,-1.47
2023-03-29T04:54:51.529Z,-1.40
2023-03-29T04:57:55.557Z,-1.25
2023-03-29T05:00:59.158Z,-1.05
2023-03-29T05:04:05.122Z,-0.89
2023-03-29T05:07:08.629Z,-0.68
2023-03-29T05:10:11.764Z,-0.46
2023-03-29T05:13:14.805Z,-0.26
2023-03-29T05:16:17.800Z,-0.08
2023-03-29T05:19:23.852Z,-0.06
2023-03-29T05:22:27.077Z,-0.02
2023-03-29T05:25:30.336Z,0.02
2023-03-29T05:28:33.882Z,0.09
2023-03-29T05:31:37.967Z,0.22
2023-03-29T05:34:41.424Z,0.57
2023-03-29T05:37:44.344Z,0.82
2023-03-29T05:40:47.297Z,1.02
2023-03-29T05:43:51.283Z,1.13
2023-03-29T05:46:54.711Z,1.19
2023-03-29T05:49:57.673Z,1.38
2023-03-29T05:53:00.764Z,1.58
2023-03-29T05:56:04.132Z,1.65
2023-03-29T05:59:08.474Z,1.75
2023-03-29T06:02:12.487Z,1.94
2023-03-29T06:05:16.982Z,2.09
2023-03-29T06:08:22.334Z,2.26
2023-03-29T06:11:26.403Z,2.37
2023-03-29T06:14:31.430Z,2.46
2023-03-29T06:17:36.598Z,2.54
2023-03-29T06:20:39.551Z,2.57
2023-03-29T06:23:42.740Z,2.56
2023-03-29T06:26:46.526Z,2.75
2023-03-29T06:29:50.095Z,2.79
2023-03-29T06:32:52.791Z,2.88
2023-03-29T06:35:57.439Z,2.99
2023-03-29T06:39:01.024Z,3.05
2023-03-29T06:42:20.111Z,3.17
2023-03-29T06:45:27.496Z,3.03
2023-03-29T06:48:34.290Z,3.23
2023-03-29T06:51:37.519Z,3.52
2023-03-29T06:54:40.942Z,3.75
2023-03-29T06:57:44.136Z,3.93
2023-03-29T07:00:51.710Z,3.70
2023-03-29T07:03:57.845Z,4.02
2023-03-29T07:07:01.929Z,3.87
2023-03-29T07:10:05.597Z,4.01
2023-03-29T07:13:13.382Z,4.20
2023-03-29T07:16:16.410Z,4.13
2023-03-29T07:19:22.720Z,4.44
2023-03-29T07:22:27.244Z,4.61
2023-03-29T07:25:31.223Z,4.51
2023-03-29T07:28:34.827Z,4.41
2023-03-29T07:31:40.857Z,4.44
2023-03-29T07:34:44.771Z,4.44
2023-03-29T07:37:48.783Z,4.50
2023-03-29T07:40:53.613Z,4.32
2023-03-29T07:44:04.941Z,4.47
2023-03-29T07:47:08.787Z,4.83
2023-03-29T07:50:14.559Z,5.02
2023-03-29T07:53:17.366Z,5.34
2023-03-29T07:56:20.624Z,5.38
2023-03-29T07:59:23.670Z,5.65
2023-03-29T08:02:27.309Z,5.59
2023-03-29T08:05:40.586Z,5.97
2023-03-29T08:08:44.567Z,6.18
2023-03-29T08:11:48.355Z,5.99
2023-03-29T08:14:51.050Z,6.08
2023-03-29T08:17:54.492Z,6.09
2023-03-29T08:20:58.110Z,6.39
2023-03-29T08:24:01.242Z,6.47
2023-03-29T08:27:04.562Z,6.61
2023-03-29T08:30:09.482Z,6.92
2023-03-29T08:33:13.274Z,6.64
2023-03-29T08:36:16.709Z,6.78
2023-03-29T08:39:19.799Z,7.14
2023-03-29T08:42:30.215Z,7.21
2023-03-29T08:46:03.250Z,7.75
2023-03-29T08:49:09.638Z,8.04
2023-03-29T08:52:36.944Z,7.95
2023-03-29T08:55:43.236Z,8.50
2023-03-29T08:58:51.439Z,8.74
2023-03-29T09:01:57.551Z,8.55
2023-03-29T09:05:20.992Z,8.16
2023-03-29T09:08:25.430Z,7.93
2023-03-29T09:11:56.633Z,7.86
2023-03-29T09:15:14.249Z,7.81
2023-03-29T09:18:36.307Z,7.44
2023-03-29T09:21:50.669Z,7.56
2023-03-29T09:25:01.669Z,7.63
2023-03-29T09:28:39.294Z,7.84
2023-03-29T09:31:44.556Z,7.90
2023-03-29T09:35:18.204Z,7.86
2023-03-29T09:38:22.988Z,7.61
2023-03-29T09:41:41.239Z,7.63
2023-03-29T09:44:52.596Z,7.64
2023-03-29T09:48:17.567Z,7.72
2023-03-29T09:51:26.322Z,8.03
2023-03-29T09:54:30.846Z,7.86
2023-03-29T09:57:35.673Z,7.64
2023-03-29T10:00:39.959Z,7.67
2023-03-29T10:03:52.317Z,8.15
2023-03-29T10:06:55.376Z,8.28
2023-03-29T10:09:58.401Z,8.68
2023-03-29T10:13:06.021Z,8.81
2023-03-29T10:16:18.294Z,8.88
2023-03-29T10:19:36.937Z,8.78
2023-03-29T10:22:48.309Z,9.09
2023-03-29T10:25:51.817Z,9.36
2023-03-29T10:28:57.273Z,9.70
2023-03-29T10:32:00.065Z,9.89
2023-03-29T10:35:33.785Z,9.59
2023-03-29T10:38:38.101Z,9.60
2023-03-29T10:41:41.318Z,9.23
2023-03-29T10:44:54.001Z,9.17
2023-03-29T10:47:59.102Z,9.43
2023-03-29T10:51:05.690Z,9.93
2023-03-29T10:54:13.713Z,9.71
2023-03-29T10:57:27.780Z,10.16
2023-03-29T11:00:49.200Z,10.54
2023-03-29T11:03:57.797Z,10.80
2023-03-29T11:07:06.637Z,10.97
2023-03-29T11:10:21.540Z,11.58
2023-03-29T11:13:46.945Z,11.55
2023-03-29T11:17:24.545Z,11.58
2023-03-29T11:20:47.759Z,12.14
2023-03-29T11:24:38.468Z,12.66
2023-03-29T11:28:04.486Z,12.63
2023-03-29T11:31:22.994Z,13.29
2023-03-29T11:34:29.614Z,13.32
2023-03-29T11:37:44.568Z,14.03
2023-03-29T11:40:57.180Z,14.00
2023-03-29T11:44:17.631Z,13.90
2023-03-29T11:47:23.127Z,14.20
2023-03-29T11:50:39.469Z,14.10
2023-03-29T11:53:56.200Z,14.85
2023-03-29T11:57:14.705Z,17.58
2023-03-29T12:00:38.837Z,18.35
2023-03-29T12:03:47.988Z,19.02
2023-03-29T12:07:17.872Z,19.86
2023-03-29T12:10:27.321Z,20.14
2023-03-29T12:13:42.736Z,20.34
2023-03-29T12:16:54.623Z,22.24
2023-03-29T12:20:07.181Z,23.58
2023-03-29T12:23:15.180Z,23.19
2023-03-29T12:26:43.086Z,22.25
2023-03-29T12:30:14.521Z,20.38
2023-03-29T12:33:51.539Z,21.37
2023-03-29T12:37:22.023Z,19.62
2023-03-29T12:40:28.435Z,20.88
2023-03-29T12:43:43.584Z,21.79
2023-03-29T12:46:54.692Z,20.41
2023-03-29T12:49:59.746Z,20.11
2023-03-29T12:53:22.187Z,21.63
2023-03-29T12:56:56.208Z,20.55
2023-03-29T13:00:19.035Z,19.28
2023-03-29T13:03:30.010Z,19.57
2023-03-29T13:06:35.329Z,19.75
2023-03-29T13:09:51.847Z,20.84
2023-03-29T13:12:54.737Z,19.66
2023-03-29T13:33:10.246Z,21.95
2023-03-29T13:36:29.347Z,20.19
2023-03-29T13:39:36.949Z,17.62
2023-03-29T13:42:41.859Z,15.64
2023-03-29T13:45:44.996Z,16.17
2023-03-29T13:49:16.963Z,16.93
2023-03-29T13:52:43.363Z,19.80
2023-03-29T13:55:52.175Z,20.59
2023-03-29T13:59:05.647Z,20.05
2023-03-29T14:02:19.898Z,21.05
2023-03-29T14:05:32.241Z,20.23
2023-03-29T14:08:39.889Z,19.00
2023-03-29T14:28:29.885Z,17.96
2023-03-29T14:31:35.980Z,17.13
2023-03-29T14:34:40.177Z,16.48
2023-03-29T14:37:44.024Z,15.64
2023-03-29T14:40:46.739Z,15.16
2023-03-29T14:43:51.133Z,14.35
2023-03-29T14:51:01.146Z,13.17
2023-03-29T14:54:05.714Z,12.64
2023-03-29T14:57:15.323Z,12.02
2023-03-29T15:00:26.886Z,11.65
2023-03-29T15:03:44.305Z,11.69
2023-03-29T15:11:54.990Z,11.23
2023-03-29T15:14:59.545Z,11.01
2023-03-29T15:18:06.916Z,10.85
2023-03-29T15:21:18.225Z,10.66
2023-03-29T15:24:23.354Z,10.73
2023-03-29T15:27:26.454Z,10.53
2023-03-29T15:30:39.134Z,10.64
2023-03-29T15:41:52.843Z,10.80
2023-03-29T15:44:56.407Z,10.84
2023-03-29T15:48:02.015Z,10.92
2023-03-29T15:51:06.802Z,10.91
2023-03-29T15:54:09.837Z,10.70
2023-03-29T15:57:15.633Z,10.35
